sensor_id;sensor_type;location;lat;lon;timestamp;P1;durP1;ratioP1;P2;durP2;ratioP2
53108;SDS011;39007;53.090;6.074;2023-02-15T00:01:36;98.15;;;24.17;;
53108;SDS011;39007;53.090;6.074;2023-02-15T00:04:03;141.20;;;26.98;;
53108;SDS011;39007;53.090;6.074;2023-02-15T00:06:30;63.00;;;22.75;;
53108;SDS011;39007;53.090;6.074;2023-02-15T00:08:56;26.13;;;21.20;;
53108;SDS011;39007;53.090;6.074;2023-02-15T00:11:22;25.30;;;21.13;;
53108;SDS011;39007;53.090;6.074;2023-02-15T00:14:08;47.95;;;25.98;;
53108;SDS011;39007;53.090;6.074;2023-02-15T00:16:34;46.85;;;27.83;;
53108;SDS011;39007;53.090;6.074;2023-02-15T00:19:00;33.25;;;24.33;;
53108;SDS011;39007;53.090;6.074;2023-02-15T00:21:27;26.30;;;21.67;;
53108;SDS011;39007;53.090;6.074;2023-02-15T00:23:54;25.50;;;21.30;;
53108;SDS011;39007;53.090;6.074;2023-02-15T00:26:21;22.60;;;19.70;;
53108;SDS011;39007;53.090;6.074;2023-02-15T00:28:47;20.13;;;17.55;;
53108;SDS011;39007;53.090;6.074;2023-02-15T00:31:13;21.40;;;18.98;;
53108;SDS011;39007;53.090;6.074;2023-02-15T00:33:39;21.38;;;17.92;;
53108;SDS011;39007;53.090;6.074;2023-02-15T00:36:07;22.08;;;18.38;;
53108;SDS011;39007;53.090;6.074;2023-02-15T00:38:33;22.33;;;18.40;;
53108;SDS011;39007;53.090;6.074;2023-02-15T00:41:00;20.25;;;17.95;;
53108;SDS011;39007;53.090;6.074;2023-02-15T00:43:27;20.73;;;18.52;;
53108;SDS011;39007;53.090;6.074;2023-02-15T00:45:53;21.45;;;19.10;;
53108;SDS011;39007;53.090;6.074;2023-02-15T00:48:20;22.80;;;18.48;;
53108;SDS011;39007;53.090;6.074;2023-02-15T00:50:50;21.35;;;18.45;;
53108;SDS011;39007;53.090;6.074;2023-02-15T00:53:16;21.42;;;17.85;;
53108;SDS011;39007;53.090;6.074;2023-02-15T00:55:42;20.27;;;17.65;;
53108;SDS011;39007;53.090;6.074;2023-02-15T00:58:09;21.20;;;18.02;;
53108;SDS011;39007;53.090;6.074;2023-02-15T01:00:35;18.85;;;16.85;;
53108;SDS011;39007;53.090;6.074;2023-02-15T01:03:02;19.38;;;16.38;;
53108;SDS011;39007;53.090;6.074;2023-02-15T01:05:29;20.23;;;17.40;;
53108;SDS011;39007;53.090;6.074;2023-02-15T01:07:56;19.30;;;17.17;;
53108;SDS011;39007;53.090;6.074;2023-02-15T01:10:22;22.55;;;18.70;;
53108;SDS011;39007;53.090;6.074;2023-02-15T01:12:49;26.02;;;20.00;;
53108;SDS011;39007;53.090;6.074;2023-02-15T01:15:16;30.73;;;22.88;;
53108;SDS011;39007;53.090;6.074;2023-02-15T01:17:42;28.65;;;22.45;;
53108;SDS011;39007;53.090;6.074;2023-02-15T01:20:10;23.75;;;20.33;;
53108;SDS011;39007;53.090;6.074;2023-02-15T01:22:37;23.67;;;18.90;;
53108;SDS011;39007;53.090;6.074;2023-02-15T01:25:03;20.58;;;17.17;;
53108;SDS011;39007;53.090;6.074;2023-02-15T01:27:29;24.38;;;19.38;;
53108;SDS011;39007;53.090;6.074;2023-02-15T01:29:56;24.52;;;18.95;;
53108;SDS011;39007;53.090;6.074;2023-02-15T01:32:22;22.52;;;18.92;;
53108;SDS011;39007;53.090;6.074;2023-02-15T01:34:49;23.63;;;19.20;;
53108;SDS011;39007;53.090;6.074;2023-02-15T01:37:15;22.42;;;17.10;;
53108;SDS011;39007;53.090;6.074;2023-02-15T01:39:41;21.88;;;18.60;;
53108;SDS011;39007;53.090;6.074;2023-02-15T01:42:10;20.52;;;17.88;;
53108;SDS011;39007;53.090;6.074;2023-02-15T01:44:45;20.13;;;17.73;;
53108;SDS011;39007;53.090;6.074;2023-02-15T01:47:13;20.25;;;17.73;;
53108;SDS011;39007;53.090;6.074;2023-02-15T01:49:40;19.90;;;16.73;;
53108;SDS011;39007;53.090;6.074;2023-02-15T01:52:08;19.27;;;17.27;;
53108;SDS011;39007;53.090;6.074;2023-02-15T01:54:35;18.63;;;16.63;;
53108;SDS011;39007;53.090;6.074;2023-02-15T01:57:05;20.42;;;17.77;;
53108;SDS011;39007;53.090;6.074;2023-02-15T01:59:31;18.17;;;16.20;;
53108;SDS011;39007;53.090;6.074;2023-02-15T02:01:59;17.67;;;15.77;;
53108;SDS011;39007;53.090;6.074;2023-02-15T02:04:28;18.40;;;16.35;;
53108;SDS011;39007;53.090;6.074;2023-02-15T02:06:54;20.90;;;17.25;;
53108;SDS011;39007;53.090;6.074;2023-02-15T02:09:23;24.65;;;18.98;;
53108;SDS011;39007;53.090;6.074;2023-02-15T02:11:49;23.60;;;17.98;;
53108;SDS011;39007;53.090;6.074;2023-02-15T02:14:16;21.02;;;17.63;;
53108;SDS011;39007;53.090;6.074;2023-02-15T02:34:58;19.10;;;17.10;;
53108;SDS011;39007;53.090;6.074;2023-02-15T02:40:31;18.73;;;16.73;;
53108;SDS011;39007;53.090;6.074;2023-02-15T02:46:01;30.30;;;19.45;;
53108;SDS011;39007;53.090;6.074;2023-02-15T02:48:29;25.92;;;20.70;;
53108;SDS011;39007;53.090;6.074;2023-02-15T02:50:56;23.38;;;19.45;;
53108;SDS011;39007;53.090;6.074;2023-02-15T02:53:22;22.70;;;19.88;;
53108;SDS011;39007;53.090;6.074;2023-02-15T03:01:42;20.20;;;18.02;;
53108;SDS011;39007;53.090;6.074;2023-02-15T03:04:10;21.88;;;18.23;;
53108;SDS011;39007;53.090;6.074;2023-02-15T03:06:40;20.58;;;18.30;;
53108;SDS011;39007;53.090;6.074;2023-02-15T03:09:22;22.80;;;18.98;;
53108;SDS011;39007;53.090;6.074;2023-02-15T03:11:50;24.42;;;19.75;;
53108;SDS011;39007;53.090;6.074;2023-02-15T03:14:16;27.08;;;20.13;;
53108;SDS011;39007;53.090;6.074;2023-02-15T03:16:44;27.48;;;22.13;;
53108;SDS011;39007;53.090;6.074;2023-02-15T03:19:13;36.70;;;24.15;;
53108;SDS011;39007;53.090;6.074;2023-02-15T03:21:41;65.85;;;27.45;;
53108;SDS011;39007;53.090;6.074;2023-02-15T03:24:14;54.17;;;27.42;;
53108;SDS011;39007;53.090;6.074;2023-02-15T03:26:43;142.60;;;32.38;;
53108;SDS011;39007;53.090;6.074;2023-02-15T03:29:10;310.10;;;34.95;;
53108;SDS011;39007;53.090;6.074;2023-02-15T03:31:38;395.17;;;36.50;;
53108;SDS011;39007;53.090;6.074;2023-02-15T03:34:06;435.60;;;33.85;;
53108;SDS011;39007;53.090;6.074;2023-02-15T03:41:30;413.25;;;30.40;;
53108;SDS011;39007;53.090;6.074;2023-02-15T03:43:59;353.35;;;30.73;;
53108;SDS011;39007;53.090;6.074;2023-02-15T03:46:30;298.73;;;29.20;;
53108;SDS011;39007;53.090;6.074;2023-02-15T03:49:08;247.25;;;30.52;;
53108;SDS011;39007;53.090;6.074;2023-02-15T03:51:36;233.15;;;28.10;;
53108;SDS011;39007;53.090;6.074;2023-02-15T03:54:14;59.78;;;28.45;;
53108;SDS011;39007;53.090;6.074;2023-02-15T03:57:01;35.08;;;26.85;;
53108;SDS011;39007;53.090;6.074;2023-02-15T03:59:46;56.42;;;30.80;;
53108;SDS011;39007;53.090;6.074;2023-02-15T04:02:34;37.63;;;28.33;;
53108;SDS011;39007;53.090;6.074;2023-02-15T04:05:02;51.97;;;26.88;;
53108;SDS011;39007;53.090;6.074;2023-02-15T04:07:28;86.30;;;27.02;;
53108;SDS011;39007;53.090;6.074;2023-02-15T04:09:54;164.77;;;26.85;;
53108;SDS011;39007;53.090;6.074;2023-02-15T04:12:39;167.30;;;27.58;;
53108;SDS011;39007;53.090;6.074;2023-02-15T04:15:05;103.07;;;26.35;;
53108;SDS011;39007;53.090;6.074;2023-02-15T04:17:50;55.58;;;25.45;;
53108;SDS011;39007;53.090;6.074;2023-02-15T04:20:16;33.45;;;27.40;;
53108;SDS011;39007;53.090;6.074;2023-02-15T04:23:01;49.90;;;25.17;;
53108;SDS011;39007;53.090;6.074;2023-02-15T04:25:49;30.02;;;24.20;;
53108;SDS011;39007;53.090;6.074;2023-02-15T04:28:15;30.17;;;25.17;;
53108;SDS011;39007;53.090;6.074;2023-02-15T04:30:41;30.00;;;25.88;;
53108;SDS011;39007;53.090;6.074;2023-02-15T04:33:07;31.17;;;24.35;;
53108;SDS011;39007;53.090;6.074;2023-02-15T04:35:34;30.38;;;25.13;;
53108;SDS011;39007;53.090;6.074;2023-02-15T04:38:00;29.73;;;24.60;;
53108;SDS011;39007;53.090;6.074;2023-02-15T04:40:26;27.27;;;23.13;;
53108;SDS011;39007;53.090;6.074;2023-02-15T04:42:52;28.67;;;23.67;;
53108;SDS011;39007;53.090;6.074;2023-02-15T04:45:18;28.35;;;24.02;;
53108;SDS011;39007;53.090;6.074;2023-02-15T04:47:45;25.85;;;23.02;;
53108;SDS011;39007;53.090;6.074;2023-02-15T04:50:11;25.55;;;22.83;;
53108;SDS011;39007;53.090;6.074;2023-02-15T04:52:37;26.77;;;23.45;;
53108;SDS011;39007;53.090;6.074;2023-02-15T04:55:03;26.67;;;23.27;;
53108;SDS011;39007;53.090;6.074;2023-02-15T04:57:29;26.85;;;23.42;;
53108;SDS011;39007;53.090;6.074;2023-02-15T04:59:55;26.20;;;22.33;;
53108;SDS011;39007;53.090;6.074;2023-02-15T05:02:24;28.95;;;23.83;;
53108;SDS011;39007;53.090;6.074;2023-02-15T05:04:50;26.88;;;23.17;;
53108;SDS011;39007;53.090;6.074;2023-02-15T05:07:16;27.52;;;22.65;;
53108;SDS011;39007;53.090;6.074;2023-02-15T05:09:43;27.40;;;23.52;;
53108;SDS011;39007;53.090;6.074;2023-02-15T05:12:09;30.17;;;24.77;;
53108;SDS011;39007;53.090;6.074;2023-02-15T05:14:35;31.45;;;24.83;;
53108;SDS011;39007;53.090;6.074;2023-02-15T05:17:01;29.77;;;23.52;;
53108;SDS011;39007;53.090;6.074;2023-02-15T05:19:28;32.30;;;25.42;;
53108;SDS011;39007;53.090;6.074;2023-02-15T05:21:54;31.75;;;25.83;;
53108;SDS011;39007;53.090;6.074;2023-02-15T05:24:20;29.35;;;25.35;;
53108;SDS011;39007;53.090;6.074;2023-02-15T05:27:05;30.75;;;24.55;;
53108;SDS011;39007;53.090;6.074;2023-02-15T05:29:50;32.25;;;25.50;;
53108;SDS011;39007;53.090;6.074;2023-02-15T05:32:16;31.10;;;25.92;;
53108;SDS011;39007;53.090;6.074;2023-02-15T05:34:42;35.17;;;26.88;;
53108;SDS011;39007;53.090;6.074;2023-02-15T05:37:08;33.63;;;27.30;;
53108;SDS011;39007;53.090;6.074;2023-02-15T05:39:34;34.35;;;28.33;;
53108;SDS011;39007;53.090;6.074;2023-02-15T05:42:01;31.75;;;26.08;;
53108;SDS011;39007;53.090;6.074;2023-02-15T05:44:27;35.25;;;27.67;;
53108;SDS011;39007;53.090;6.074;2023-02-15T05:46:53;33.13;;;26.40;;
53108;SDS011;39007;53.090;6.074;2023-02-15T05:49:19;38.05;;;30.17;;
53108;SDS011;39007;53.090;6.074;2023-02-15T05:51:45;42.95;;;32.38;;
53108;SDS011;39007;53.090;6.074;2023-02-15T05:54:11;41.35;;;31.85;;
53108;SDS011;39007;53.090;6.074;2023-02-15T05:56:37;45.75;;;32.50;;
53108;SDS011;39007;53.090;6.074;2023-02-15T05:59:03;46.90;;;33.85;;
53108;SDS011;39007;53.090;6.074;2023-02-15T06:01:29;57.83;;;40.40;;
53108;SDS011;39007;53.090;6.074;2023-02-15T06:03:56;49.00;;;38.83;;
53108;SDS011;39007;53.090;6.074;2023-02-15T06:06:22;54.95;;;42.00;;
53108;SDS011;39007;53.090;6.074;2023-02-15T06:08:48;53.35;;;38.38;;
53108;SDS011;39007;53.090;6.074;2023-02-15T06:11:14;87.45;;;56.03;;
53108;SDS011;39007;53.090;6.074;2023-02-15T06:13:40;74.05;;;50.53;;
53108;SDS011;39007;53.090;6.074;2023-02-15T06:16:06;92.63;;;58.95;;
53108;SDS011;39007;53.090;6.074;2023-02-15T06:18:33;77.40;;;52.05;;
53108;SDS011;39007;53.090;6.074;2023-02-15T06:20:59;71.78;;;49.05;;
53108;SDS011;39007;53.090;6.074;2023-02-15T06:23:25;67.55;;;47.22;;
53108;SDS011;39007;53.090;6.074;2023-02-15T06:25:51;68.50;;;46.60;;
53108;SDS011;39007;53.090;6.074;2023-02-15T06:28:17;70.28;;;45.78;;
53108;SDS011;39007;53.090;6.074;2023-02-15T06:30:43;68.20;;;46.97;;
53108;SDS011;39007;53.090;6.074;2023-02-15T06:33:09;67.70;;;47.50;;
53108;SDS011;39007;53.090;6.074;2023-02-15T06:35:35;73.30;;;48.65;;
53108;SDS011;39007;53.090;6.074;2023-02-15T06:38:02;73.95;;;49.40;;
53108;SDS011;39007;53.090;6.074;2023-02-15T06:40:28;66.53;;;46.75;;
53108;SDS011;39007;53.090;6.074;2023-02-15T06:42:54;68.10;;;47.58;;
53108;SDS011;39007;53.090;6.074;2023-02-15T06:45:20;71.50;;;47.30;;
53108;SDS011;39007;53.090;6.074;2023-02-15T06:47:46;64.22;;;46.92;;
53108;SDS011;39007;53.090;6.074;2023-02-15T06:50:12;65.80;;;44.85;;
53108;SDS011;39007;53.090;6.074;2023-02-15T06:52:38;71.53;;;48.03;;
53108;SDS011;39007;53.090;6.074;2023-02-15T06:55:04;67.80;;;46.90;;
53108;SDS011;39007;53.090;6.074;2023-02-15T06:57:31;69.53;;;47.25;;
53108;SDS011;39007;53.090;6.074;2023-02-15T06:59:58;66.65;;;45.47;;
53108;SDS011;39007;53.090;6.074;2023-02-15T07:02:24;66.38;;;45.40;;
53108;SDS011;39007;53.090;6.074;2023-02-15T07:04:50;64.90;;;45.25;;
53108;SDS011;39007;53.090;6.074;2023-02-15T07:07:16;68.60;;;46.45;;
53108;SDS011;39007;53.090;6.074;2023-02-15T07:09:42;72.65;;;47.03;;
53108;SDS011;39007;53.090;6.074;2023-02-15T07:12:09;75.30;;;47.40;;
53108;SDS011;39007;53.090;6.074;2023-02-15T07:14:54;69.45;;;45.78;;
53108;SDS011;39007;53.090;6.074;2023-02-15T07:17:20;73.03;;;46.80;;
53108;SDS011;39007;53.090;6.074;2023-02-15T07:19:47;70.03;;;46.35;;
53108;SDS011;39007;53.090;6.074;2023-02-15T07:22:13;75.22;;;46.80;;
53108;SDS011;39007;53.090;6.074;2023-02-15T07:24:39;65.93;;;46.15;;
53108;SDS011;39007;53.090;6.074;2023-02-15T07:27:06;68.45;;;44.92;;
53108;SDS011;39007;53.090;6.074;2023-02-15T07:29:32;71.28;;;46.35;;
53108;SDS011;39007;53.090;6.074;2023-02-15T07:31:59;72.65;;;47.53;;
53108;SDS011;39007;53.090;6.074;2023-02-15T07:34:25;74.30;;;47.58;;
53108;SDS011;39007;53.090;6.074;2023-02-15T07:36:51;68.70;;;44.92;;
53108;SDS011;39007;53.090;6.074;2023-02-15T07:39:18;73.10;;;46.75;;
53108;SDS011;39007;53.090;6.074;2023-02-15T07:41:44;75.65;;;47.20;;
53108;SDS011;39007;53.090;6.074;2023-02-15T07:44:11;66.10;;;44.25;;
53108;SDS011;39007;53.090;6.074;2023-02-15T07:46:41;70.90;;;45.13;;
53108;SDS011;39007;53.090;6.074;2023-02-15T07:49:07;68.85;;;43.53;;
53108;SDS011;39007;53.090;6.074;2023-02-15T07:51:33;68.85;;;45.63;;
53108;SDS011;39007;53.090;6.074;2023-02-15T07:53:59;64.53;;;44.45;;
53108;SDS011;39007;53.090;6.074;2023-02-15T07:56:25;66.47;;;42.28;;
53108;SDS011;39007;53.090;6.074;2023-02-15T07:58:51;68.07;;;44.75;;
53108;SDS011;39007;53.090;6.074;2023-02-15T08:01:18;69.30;;;44.92;;
53108;SDS011;39007;53.090;6.074;2023-02-15T08:03:48;63.10;;;43.25;;
53108;SDS011;39007;53.090;6.074;2023-02-15T08:06:14;67.20;;;42.92;;
53108;SDS011;39007;53.090;6.074;2023-02-15T08:08:41;60.15;;;41.75;;
53108;SDS011;39007;53.090;6.074;2023-02-15T08:11:17;64.57;;;43.72;;
53108;SDS011;39007;53.090;6.074;2023-02-15T08:14:18;62.88;;;42.00;;
53108;SDS011;39007;53.090;6.074;2023-02-15T08:16:46;70.45;;;42.85;;
53108;SDS011;39007;53.090;6.074;2023-02-15T08:21:42;60.28;;;42.25;;
53108;SDS011;39007;53.090;6.074;2023-02-15T08:24:09;64.28;;;43.35;;
53108;SDS011;39007;53.090;6.074;2023-02-15T08:26:36;62.30;;;41.78;;
53108;SDS011;39007;53.090;6.074;2023-02-15T08:29:04;65.43;;;43.05;;
53108;SDS011;39007;53.090;6.074;2023-02-15T08:31:31;61.28;;;43.22;;
53108;SDS011;39007;53.090;6.074;2023-02-15T08:33:57;58.90;;;40.92;;
53108;SDS011;39007;53.090;6.074;2023-02-15T08:36:25;60.58;;;41.83;;
53108;SDS011;39007;53.090;6.074;2023-02-15T08:38:52;55.10;;;38.85;;
53108;SDS011;39007;53.090;6.074;2023-02-15T08:41:22;54.65;;;39.67;;
53108;SDS011;39007;53.090;6.074;2023-02-15T08:43:49;54.65;;;40.08;;
53108;SDS011;39007;53.090;6.074;2023-02-15T08:46:19;57.15;;;39.13;;
53108;SDS011;39007;53.090;6.074;2023-02-15T08:48:45;60.13;;;40.40;;
53108;SDS011;39007;53.090;6.074;2023-02-15T08:51:15;54.40;;;39.28;;
53108;SDS011;39007;53.090;6.074;2023-02-15T08:53:43;57.13;;;40.92;;
53108;SDS011;39007;53.090;6.074;2023-02-15T08:56:09;57.58;;;40.53;;
53108;SDS011;39007;53.090;6.074;2023-02-15T08:58:36;55.92;;;39.58;;
53108;SDS011;39007;53.090;6.074;2023-02-15T09:03:35;58.20;;;40.88;;
53108;SDS011;39007;53.090;6.074;2023-02-15T09:06:01;60.80;;;40.00;;
53108;SDS011;39007;53.090;6.074;2023-02-15T09:08:28;56.10;;;39.45;;
53108;SDS011;39007;53.090;6.074;2023-02-15T09:10:54;54.80;;;38.45;;
53108;SDS011;39007;53.090;6.074;2023-02-15T09:13:29;50.80;;;36.72;;
53108;SDS011;39007;53.090;6.074;2023-02-15T09:15:59;52.58;;;37.95;;
53108;SDS011;39007;53.090;6.074;2023-02-15T09:18:25;50.95;;;37.70;;
53108;SDS011;39007;53.090;6.074;2023-02-15T09:20:51;56.08;;;40.05;;
53108;SDS011;39007;53.090;6.074;2023-02-15T09:23:17;60.38;;;41.35;;
53108;SDS011;39007;53.090;6.074;2023-02-15T09:25:43;53.65;;;39.17;;
53108;SDS011;39007;53.090;6.074;2023-02-15T09:28:09;55.30;;;38.75;;
53108;SDS011;39007;53.090;6.074;2023-02-15T09:30:35;51.65;;;37.33;;
53108;SDS011;39007;53.090;6.074;2023-02-15T09:33:02;52.03;;;37.08;;
53108;SDS011;39007;53.090;6.074;2023-02-15T09:35:28;51.60;;;37.80;;
53108;SDS011;39007;53.090;6.074;2023-02-15T09:37:54;53.20;;;39.20;;
53108;SDS011;39007;53.090;6.074;2023-02-15T09:40:20;51.00;;;38.80;;
53108;SDS011;39007;53.090;6.074;2023-02-15T09:42:56;54.95;;;39.80;;
53108;SDS011;39007;53.090;6.074;2023-02-15T09:45:37;53.58;;;37.38;;
53108;SDS011;39007;53.090;6.074;2023-02-15T10:06:11;52.53;;;38.40;;
53108;SDS011;39007;53.090;6.074;2023-02-15T10:14:05;52.35;;;35.90;;
53108;SDS011;39007;53.090;6.074;2023-02-15T10:22:01;51.88;;;35.70;;
53108;SDS011;39007;53.090;6.074;2023-02-15T10:26:55;51.03;;;35.80;;
53108;SDS011;39007;53.090;6.074;2023-02-15T10:29:37;53.05;;;37.45;;
53108;SDS011;39007;53.090;6.074;2023-02-15T10:32:11;53.00;;;37.15;;
53108;SDS011;39007;53.090;6.074;2023-02-15T10:50:05;54.65;;;35.88;;
53108;SDS011;39007;53.090;6.074;2023-02-15T11:00:13;49.85;;;35.88;;
53108;SDS011;39007;53.090;6.074;2023-02-15T11:02:46;51.60;;;35.22;;
53108;SDS011;39007;53.090;6.074;2023-02-15T11:07:41;48.88;;;34.40;;
53108;SDS011;39007;53.090;6.074;2023-02-15T11:12:37;48.33;;;33.17;;
53108;SDS011;39007;53.090;6.074;2023-02-15T11:15:10;50.33;;;33.65;;
53108;SDS011;39007;53.090;6.074;2023-02-15T11:17:39;53.65;;;34.75;;
53108;SDS011;39007;53.090;6.074;2023-02-15T11:20:18;54.15;;;36.25;;
53108;SDS011;39007;53.090;6.074;2023-02-15T11:22:46;53.50;;;36.10;;
53108;SDS011;39007;53.090;6.074;2023-02-15T11:25:18;52.85;;;36.38;;
53108;SDS011;39007;53.090;6.074;2023-02-15T11:27:45;55.38;;;36.47;;
53108;SDS011;39007;53.090;6.074;2023-02-15T11:30:13;51.97;;;36.20;;
53108;SDS011;39007;53.090;6.074;2023-02-15T11:32:40;52.75;;;36.10;;
53108;SDS011;39007;53.090;6.074;2023-02-15T11:40:24;54.58;;;36.25;;
53108;SDS011;39007;53.090;6.074;2023-02-15T11:42:51;54.13;;;37.92;;
53108;SDS011;39007;53.090;6.074;2023-02-15T11:45:21;51.20;;;35.28;;
53108;SDS011;39007;53.090;6.074;2023-02-15T11:47:48;57.22;;;35.97;;
53108;SDS011;39007;53.090;6.074;2023-02-15T11:50:15;52.10;;;36.17;;
53108;SDS011;39007;53.090;6.074;2023-02-15T11:52:43;49.55;;;35.03;;
53108;SDS011;39007;53.090;6.074;2023-02-15T11:55:12;51.30;;;35.40;;
53108;SDS011;39007;53.090;6.074;2023-02-15T11:57:41;53.50;;;35.45;;
53108;SDS011;39007;53.090;6.074;2023-02-15T12:00:14;49.65;;;35.58;;
53108;SDS011;39007;53.090;6.074;2023-02-15T12:02:44;48.58;;;34.10;;
53108;SDS011;39007;53.090;6.074;2023-02-15T12:05:17;49.53;;;34.95;;
53108;SDS011;39007;53.090;6.074;2023-02-15T12:08:03;51.33;;;34.97;;
53108;SDS011;39007;53.090;6.074;2023-02-15T12:10:36;48.20;;;34.15;;
53108;SDS011;39007;53.090;6.074;2023-02-15T12:13:19;53.30;;;35.08;;
53108;SDS011;39007;53.090;6.074;2023-02-15T12:15:47;53.15;;;35.92;;
53108;SDS011;39007;53.090;6.074;2023-02-15T12:20:59;51.42;;;34.03;;
53108;SDS011;39007;53.090;6.074;2023-02-15T12:23:27;49.58;;;32.92;;
53108;SDS011;39007;53.090;6.074;2023-02-15T12:25:55;47.22;;;32.47;;
53108;SDS011;39007;53.090;6.074;2023-02-15T12:28:38;49.95;;;30.83;;
53108;SDS011;39007;53.090;6.074;2023-02-15T12:31:49;45.65;;;31.55;;
53108;SDS011;39007;53.090;6.074;2023-02-15T12:33:56;49.10;;;32.25;;
53108;SDS011;39007;53.090;6.074;2023-02-15T12:36:29;49.13;;;31.33;;
53108;SDS011;39007;53.090;6.074;2023-02-15T12:39:03;48.35;;;31.17;;
53108;SDS011;39007;53.090;6.074;2023-02-15T12:41:29;47.78;;;29.90;;
53108;SDS011;39007;53.090;6.074;2023-02-15T12:44:05;47.53;;;30.20;;
53108;SDS011;39007;53.090;6.074;2023-02-15T12:46:32;46.97;;;29.58;;
53108;SDS011;39007;53.090;6.074;2023-02-15T12:49:17;46.33;;;30.52;;
53108;SDS011;39007;53.090;6.074;2023-02-15T12:56:47;46.55;;;29.63;;
53108;SDS011;39007;53.090;6.074;2023-02-15T12:59:14;47.53;;;30.85;;
53108;SDS011;39007;53.090;6.074;2023-02-15T13:01:41;49.55;;;31.65;;
53108;SDS011;39007;53.090;6.074;2023-02-15T13:04:27;53.08;;;32.90;;
53108;SDS011;39007;53.090;6.074;2023-02-15T13:07:00;51.53;;;33.35;;
53108;SDS011;39007;53.090;6.074;2023-02-15T13:11:56;51.22;;;32.97;;
53108;SDS011;39007;53.090;6.074;2023-02-15T13:14:28;53.35;;;33.58;;
53108;SDS011;39007;53.090;6.074;2023-02-15T13:16:57;52.58;;;32.45;;
53108;SDS011;39007;53.090;6.074;2023-02-15T13:21:52;51.58;;;33.78;;
53108;SDS011;39007;53.090;6.074;2023-02-15T13:24:24;52.00;;;34.05;;
53108;SDS011;39007;53.090;6.074;2023-02-15T13:26:51;50.05;;;32.63;;
53108;SDS011;39007;53.090;6.074;2023-02-15T13:29:21;50.80;;;32.47;;
53108;SDS011;39007;53.090;6.074;2023-02-15T13:31:48;51.92;;;33.08;;
53108;SDS011;39007;53.090;6.074;2023-02-15T13:34:18;50.75;;;32.15;;
53108;SDS011;39007;53.090;6.074;2023-02-15T13:36:51;50.65;;;33.58;;
53108;SDS011;39007;53.090;6.074;2023-02-15T13:39:22;48.20;;;32.72;;
53108;SDS011;39007;53.090;6.074;2023-02-15T13:52:24;46.72;;;32.30;;
53108;SDS011;39007;53.090;6.074;2023-02-15T13:59:53;47.05;;;33.22;;
53108;SDS011;39007;53.090;6.074;2023-02-15T14:07:28;49.78;;;33.15;;
53108;SDS011;39007;53.090;6.074;2023-02-15T14:17:50;46.78;;;31.95;;
53108;SDS011;39007;53.090;6.074;2023-02-15T14:22:46;44.88;;;31.42;;
53108;SDS011;39007;53.090;6.074;2023-02-15T14:27:56;46.13;;;31.83;;
53108;SDS011;39007;53.090;6.074;2023-02-15T14:30:31;45.58;;;31.52;;
53108;SDS011;39007;53.090;6.074;2023-02-15T14:33:47;49.13;;;32.58;;
53108;SDS011;39007;53.090;6.074;2023-02-15T14:38:15;48.90;;;32.78;;
53108;SDS011;39007;53.090;6.074;2023-02-15T14:48:42;46.15;;;31.95;;
53108;SDS011;39007;53.090;6.074;2023-02-15T14:51:13;45.17;;;30.77;;
53108;SDS011;39007;53.090;6.074;2023-02-15T14:53:56;47.15;;;31.48;;
53108;SDS011;39007;53.090;6.074;2023-02-15T14:56:23;48.08;;;32.38;;
53108;SDS011;39007;53.090;6.074;2023-02-15T15:03:55;46.00;;;31.90;;
53108;SDS011;39007;53.090;6.074;2023-02-15T15:06:26;48.97;;;32.25;;
53108;SDS011;39007;53.090;6.074;2023-02-15T15:08:55;47.13;;;33.08;;
53108;SDS011;39007;53.090;6.074;2023-02-15T15:13:54;45.13;;;31.80;;
53108;SDS011;39007;53.090;6.074;2023-02-15T15:16:25;46.33;;;32.83;;
53108;SDS011;39007;53.090;6.074;2023-02-15T15:18:53;44.55;;;31.25;;
53108;SDS011;39007;53.090;6.074;2023-02-15T15:24:05;46.40;;;32.22;;
53108;SDS011;39007;53.090;6.074;2023-02-15T15:26:32;48.25;;;32.88;;
53108;SDS011;39007;53.090;6.074;2023-02-15T15:29:11;49.28;;;33.13;;
53108;SDS011;39007;53.090;6.074;2023-02-15T15:31:51;47.00;;;32.42;;
53108;SDS011;39007;53.090;6.074;2023-02-15T15:34:32;44.78;;;32.10;;
53108;SDS011;39007;53.090;6.074;2023-02-15T15:40:00;47.10;;;31.75;;
53108;SDS011;39007;53.090;6.074;2023-02-15T15:42:48;50.08;;;33.58;;
53108;SDS011;39007;53.090;6.074;2023-02-15T15:50:32;47.03;;;32.03;;
53108;SDS011;39007;53.090;6.074;2023-02-15T15:52:58;48.03;;;31.10;;
53108;SDS011;39007;53.090;6.074;2023-02-15T15:55:26;45.92;;;31.63;;
53108;SDS011;39007;53.090;6.074;2023-02-15T15:57:53;51.53;;;32.83;;
53108;SDS011;39007;53.090;6.074;2023-02-15T16:00:33;51.13;;;33.25;;
53108;SDS011;39007;53.090;6.074;2023-02-15T16:02:59;47.97;;;31.48;;
53108;SDS011;39007;53.090;6.074;2023-02-15T16:05:25;44.35;;;31.88;;
53108;SDS011;39007;53.090;6.074;2023-02-15T16:07:51;45.95;;;31.02;;
53108;SDS011;39007;53.090;6.074;2023-02-15T16:10:22;46.83;;;31.52;;
53108;SDS011;39007;53.090;6.074;2023-02-15T16:12:49;46.72;;;32.35;;
53108;SDS011;39007;53.090;6.074;2023-02-15T16:15:17;47.83;;;32.10;;
53108;SDS011;39007;53.090;6.074;2023-02-15T16:17:45;49.85;;;33.83;;
53108;SDS011;39007;53.090;6.074;2023-02-15T16:20:14;44.33;;;31.70;;
53108;SDS011;39007;53.090;6.074;2023-02-15T16:22:43;45.30;;;31.92;;
53108;SDS011;39007;53.090;6.074;2023-02-15T16:25:16;49.38;;;32.97;;
53108;SDS011;39007;53.090;6.074;2023-02-15T16:27:47;50.67;;;33.13;;
53108;SDS011;39007;53.090;6.074;2023-02-15T16:32:49;50.78;;;33.03;;
53108;SDS011;39007;53.090;6.074;2023-02-15T16:35:19;47.88;;;32.13;;
53108;SDS011;39007;53.090;6.074;2023-02-15T16:37:45;47.00;;;32.53;;
53108;SDS011;39007;53.090;6.074;2023-02-15T16:40:25;48.13;;;33.13;;
53108;SDS011;39007;53.090;6.074;2023-02-15T16:42:52;47.17;;;34.08;;
53108;SDS011;39007;53.090;6.074;2023-02-15T16:45:20;51.22;;;32.47;;
53108;SDS011;39007;53.090;6.074;2023-02-15T16:47:47;52.83;;;34.58;;
53108;SDS011;39007;53.090;6.074;2023-02-15T16:50:19;48.88;;;33.70;;
53108;SDS011;39007;53.090;6.074;2023-02-15T16:52:46;54.38;;;35.38;;
53108;SDS011;39007;53.090;6.074;2023-02-15T16:55:23;50.58;;;35.50;;
53108;SDS011;39007;53.090;6.074;2023-02-15T16:57:49;59.63;;;37.25;;
53108;SDS011;39007;53.090;6.074;2023-02-15T17:00:19;57.08;;;36.17;;
53108;SDS011;39007;53.090;6.074;2023-02-15T17:02:56;52.03;;;36.58;;
53108;SDS011;39007;53.090;6.074;2023-02-15T17:05:24;52.90;;;35.22;;
53108;SDS011;39007;53.090;6.074;2023-02-15T17:10:29;55.75;;;37.85;;
53108;SDS011;39007;53.090;6.074;2023-02-15T17:13:00;55.90;;;36.78;;
53108;SDS011;39007;53.090;6.074;2023-02-15T17:17:59;54.00;;;37.75;;
53108;SDS011;39007;53.090;6.074;2023-02-15T17:20:26;60.47;;;38.58;;
53108;SDS011;39007;53.090;6.074;2023-02-15T17:22:53;58.22;;;40.33;;
53108;SDS011;39007;53.090;6.074;2023-02-15T17:25:20;59.55;;;39.10;;
53108;SDS011;39007;53.090;6.074;2023-02-15T17:27:50;58.58;;;38.13;;
53108;SDS011;39007;53.090;6.074;2023-02-15T17:30:21;62.83;;;39.92;;
53108;SDS011;39007;53.090;6.074;2023-02-15T17:32:53;57.33;;;39.63;;
53108;SDS011;39007;53.090;6.074;2023-02-15T17:35:27;61.65;;;41.50;;
53108;SDS011;39007;53.090;6.074;2023-02-15T17:38:01;65.03;;;40.55;;
53108;SDS011;39007;53.090;6.074;2023-02-15T17:40:28;65.57;;;42.33;;